Strona główna
METAR-TAF:

METAR-TAF

Lotnisko :

Praga, Czechy

Szerokość geograficzna: 50-12-59N, Długość geograficzna: 014-23-42E, wysokość: 280 m

Aktualna obserwacja pogody

Raport powstał 30 minut temu, godzina 07:00 UTC
Wiatr 5 kt od wschód
Temperatura 2°C
Wilgotność 69%
Ciśnienie 1020 hPa
Widzialność 10 km lub więcej
Mało chmury na wysokości 3900 ft

METAR: LKVO 230700Z 10005KT 9999 FEW039 02/M03 Q1020

czas: 09:30 (07:30 UTC)


TAF: brakujący

Obserwacja i prognoza pogody dla ponad 4000 lotnisk (raport METAR i TAF).

Dostępne stacje oznaczono żółtymi i czerwonymi punktami na mapie.

Najedź kursorem aby zobaczyć nazwę stacji.

Kliknij aby zobaczyć obserwacje i prognozy pogody.

Aby zmienić mapę: kliknij na zielony przycisk z czarnym krzyżykiem, aby powiększyć; na zielony przycisk z myślnikiem, aby pomniejszyć; na zielone strzałki, aby przejść do map sąsiednich.


METAR-TAF: